sensor_id;sensor_type;location;lat;lon;timestamp;P1;durP1;ratioP1;P2;durP2;ratioP2
81884;SDS011;71340;55.154;30.266;2023-07-22T00:01:48;2.72;;;2.25;;
81884;SDS011;71340;55.154;30.266;2023-07-22T00:04:13;2.57;;;2.10;;
81884;SDS011;71340;55.154;30.266;2023-07-22T00:06:39;3.67;;;2.13;;
81884;SDS011;71340;55.154;30.266;2023-07-22T00:09:04;5.65;;;2.20;;
81884;SDS011;71340;55.154;30.266;2023-07-22T00:11:30;2.53;;;2.13;;
81884;SDS011;71340;55.154;30.266;2023-07-22T00:13:55;2.65;;;2.40;;
81884;SDS011;71340;55.154;30.266;2023-07-22T00:16:21;2.83;;;2.20;;
81884;SDS011;71340;55.154;30.266;2023-07-22T00:18:46;3.13;;;2.33;;
81884;SDS011;71340;55.154;30.266;2023-07-22T00:21:12;9.43;;;2.10;;
81884;SDS011;71340;55.154;30.266;2023-07-22T00:23:38;4.20;;;2.10;;
81884;SDS011;71340;55.154;30.266;2023-07-22T00:26:03;4.97;;;2.10;;
81884;SDS011;71340;55.154;30.266;2023-07-22T00:28:29;3.47;;;2.25;;
81884;SDS011;71340;55.154;30.266;2023-07-22T00:30:54;6.07;;;2.20;;
81884;SDS011;71340;55.154;30.266;2023-07-22T00:33:20;3.33;;;2.20;;
81884;SDS011;71340;55.154;30.266;2023-07-22T00:35:48;3.37;;;2.20;;
81884;SDS011;71340;55.154;30.266;2023-07-22T00:38:17;3.33;;;2.45;;
81884;SDS011;71340;55.154;30.266;2023-07-22T00:40:43;2.77;;;2.40;;
81884;SDS011;71340;55.154;30.266;2023-07-22T00:43:08;5.35;;;2.30;;
81884;SDS011;71340;55.154;30.266;2023-07-22T00:45:34;3.90;;;2.60;;
81884;SDS011;71340;55.154;30.266;2023-07-22T00:47:59;3.40;;;2.00;;
81884;SDS011;71340;55.154;30.266;2023-07-22T00:50:25;4.68;;;2.20;;
81884;SDS011;71340;55.154;30.266;2023-07-22T00:52:51;3.60;;;2.20;;
81884;SDS011;71340;55.154;30.266;2023-07-22T00:55:17;3.97;;;2.30;;
81884;SDS011;71340;55.154;30.266;2023-07-22T00:57:43;3.43;;;2.20;;
81884;SDS011;71340;55.154;30.266;2023-07-22T01:00:08;2.95;;;2.30;;
81884;SDS011;71340;55.154;30.266;2023-07-22T01:02:37;3.30;;;2.23;;
81884;SDS011;71340;55.154;30.266;2023-07-22T01:05:05;3.30;;;2.40;;
81884;SDS011;71340;55.154;30.266;2023-07-22T01:07:31;2.83;;;2.37;;
81884;SDS011;71340;55.154;30.266;2023-07-22T01:09:56;3.77;;;2.13;;
81884;SDS011;71340;55.154;30.266;2023-07-22T01:12:23;5.25;;;2.33;;
81884;SDS011;71340;55.154;30.266;2023-07-22T01:14:49;3.15;;;2.13;;
81884;SDS011;71340;55.154;30.266;2023-07-22T01:17:15;4.87;;;2.43;;
81884;SDS011;71340;55.154;30.266;2023-07-22T01:19:40;2.67;;;2.30;;
81884;SDS011;71340;55.154;30.266;2023-07-22T01:22:06;4.32;;;2.40;;
81884;SDS011;71340;55.154;30.266;2023-07-22T01:24:33;2.53;;;2.10;;
81884;SDS011;71340;55.154;30.266;2023-07-22T01:26:58;3.37;;;2.33;;
81884;SDS011;71340;55.154;30.266;2023-07-22T01:29:24;2.97;;;2.30;;
81884;SDS011;71340;55.154;30.266;2023-07-22T01:31:50;4.63;;;2.10;;
81884;SDS011;71340;55.154;30.266;2023-07-22T01:34:17;5.80;;;2.10;;
81884;SDS011;71340;55.154;30.266;2023-07-22T01:36:43;4.00;;;2.40;;
81884;SDS011;71340;55.154;30.266;2023-07-22T01:39:10;2.75;;;2.28;;
81884;SDS011;71340;55.154;30.266;2023-07-22T01:41:38;4.97;;;2.40;;
81884;SDS011;71340;55.154;30.266;2023-07-22T01:44:03;3.43;;;2.70;;
81884;SDS011;71340;55.154;30.266;2023-07-22T01:46:29;3.63;;;2.70;;
81884;SDS011;71340;55.154;30.266;2023-07-22T01:48:55;3.10;;;2.27;;
81884;SDS011;71340;55.154;30.266;2023-07-22T01:51:20;4.50;;;2.20;;
81884;SDS011;71340;55.154;30.266;2023-07-22T01:53:46;4.33;;;2.40;;
81884;SDS011;71340;55.154;30.266;2023-07-22T01:56:11;2.83;;;2.30;;
81884;SDS011;71340;55.154;30.266;2023-07-22T01:58:36;3.90;;;2.40;;
81884;SDS011;71340;55.154;30.266;2023-07-22T02:01:02;3.03;;;2.40;;
81884;SDS011;71340;55.154;30.266;2023-07-22T02:03:27;6.10;;;2.40;;
81884;SDS011;71340;55.154;30.266;2023-07-22T02:05:52;3.23;;;2.27;;
81884;SDS011;71340;55.154;30.266;2023-07-22T02:08:18;3.40;;;2.70;;
81884;SDS011;71340;55.154;30.266;2023-07-22T02:10:43;4.17;;;2.33;;
81884;SDS011;71340;55.154;30.266;2023-07-22T02:13:08;7.53;;;2.40;;
81884;SDS011;71340;55.154;30.266;2023-07-22T02:15:34;2.80;;;2.30;;
81884;SDS011;71340;55.154;30.266;2023-07-22T02:18:00;3.03;;;2.40;;
81884;SDS011;71340;55.154;30.266;2023-07-22T02:20:25;3.87;;;2.70;;
81884;SDS011;71340;55.154;30.266;2023-07-22T02:22:53;3.58;;;2.42;;
81884;SDS011;71340;55.154;30.266;2023-07-22T02:25:19;4.32;;;2.60;;
81884;SDS011;71340;55.154;30.266;2023-07-22T02:27:45;3.73;;;2.40;;
81884;SDS011;71340;55.154;30.266;2023-07-22T02:30:11;3.58;;;2.53;;
81884;SDS011;71340;55.154;30.266;2023-07-22T02:32:38;2.67;;;2.47;;
81884;SDS011;71340;55.154;30.266;2023-07-22T02:35:05;3.63;;;2.58;;
81884;SDS011;71340;55.154;30.266;2023-07-22T02:37:34;4.37;;;2.70;;
81884;SDS011;71340;55.154;30.266;2023-07-22T02:40:03;3.80;;;2.80;;
81884;SDS011;71340;55.154;30.266;2023-07-22T02:42:38;3.20;;;2.90;;
81884;SDS011;71340;55.154;30.266;2023-07-22T02:45:04;3.20;;;2.90;;
81884;SDS011;71340;55.154;30.266;2023-07-22T02:47:32;5.15;;;3.50;;
81884;SDS011;71340;55.154;30.266;2023-07-22T02:49:57;5.07;;;3.08;;
81884;SDS011;71340;55.154;30.266;2023-07-22T02:52:23;4.63;;;3.73;;
81884;SDS011;71340;55.154;30.266;2023-07-22T02:55:04;4.97;;;3.33;;
81884;SDS011;71340;55.154;30.266;2023-07-22T02:57:30;5.90;;;3.88;;
81884;SDS011;71340;55.154;30.266;2023-07-22T02:59:56;6.43;;;4.40;;
81884;SDS011;71340;55.154;30.266;2023-07-22T03:02:21;5.43;;;3.40;;
81884;SDS011;71340;55.154;30.266;2023-07-22T03:04:47;4.00;;;3.50;;
81884;SDS011;71340;55.154;30.266;2023-07-22T03:07:12;4.23;;;3.40;;
81884;SDS011;71340;55.154;30.266;2023-07-22T03:09:37;3.77;;;3.10;;
81884;SDS011;71340;55.154;30.266;2023-07-22T03:12:03;5.00;;;3.80;;
81884;SDS011;71340;55.154;30.266;2023-07-22T03:14:28;6.80;;;4.10;;
81884;SDS011;71340;55.154;30.266;2023-07-22T03:16:54;4.80;;;4.03;;
81884;SDS011;71340;55.154;30.266;2023-07-22T03:19:19;5.70;;;4.13;;
81884;SDS011;71340;55.154;30.266;2023-07-22T03:21:44;6.60;;;4.63;;
81884;SDS011;71340;55.154;30.266;2023-07-22T03:24:10;5.90;;;4.90;;
81884;SDS011;71340;55.154;30.266;2023-07-22T03:26:35;6.83;;;4.73;;
81884;SDS011;71340;55.154;30.266;2023-07-22T03:29:00;10.60;;;5.10;;
81884;SDS011;71340;55.154;30.266;2023-07-22T03:31:26;9.63;;;4.82;;
81884;SDS011;71340;55.154;30.266;2023-07-22T03:33:51;5.83;;;4.23;;
81884;SDS011;71340;55.154;30.266;2023-07-22T03:36:17;5.87;;;3.70;;
81884;SDS011;71340;55.154;30.266;2023-07-22T03:38:42;7.03;;;4.43;;
81884;SDS011;71340;55.154;30.266;2023-07-22T03:41:08;6.17;;;4.00;;
81884;SDS011;71340;55.154;30.266;2023-07-22T03:43:33;4.60;;;3.37;;
81884;SDS011;71340;55.154;30.266;2023-07-22T03:45:58;7.60;;;3.50;;
81884;SDS011;71340;55.154;30.266;2023-07-22T03:48:24;4.90;;;3.37;;
81884;SDS011;71340;55.154;30.266;2023-07-22T03:50:49;5.50;;;3.50;;
81884;SDS011;71340;55.154;30.266;2023-07-22T03:53:15;5.13;;;2.80;;
81884;SDS011;71340;55.154;30.266;2023-07-22T03:55:40;6.63;;;2.90;;
81884;SDS011;71340;55.154;30.266;2023-07-22T03:58:06;3.50;;;2.80;;
81884;SDS011;71340;55.154;30.266;2023-07-22T04:00:31;4.50;;;2.90;;
81884;SDS011;71340;55.154;30.266;2023-07-22T04:02:57;4.25;;;3.00;;
81884;SDS011;71340;55.154;30.266;2023-07-22T04:05:22;5.13;;;3.00;;
81884;SDS011;71340;55.154;30.266;2023-07-22T04:07:47;3.87;;;2.90;;
81884;SDS011;71340;55.154;30.266;2023-07-22T04:10:13;5.97;;;3.40;;
81884;SDS011;71340;55.154;30.266;2023-07-22T04:12:38;7.57;;;2.90;;
81884;SDS011;71340;55.154;30.266;2023-07-22T04:15:03;6.10;;;2.60;;
81884;SDS011;71340;55.154;30.266;2023-07-22T04:17:29;5.65;;;3.08;;
81884;SDS011;71340;55.154;30.266;2023-07-22T04:19:54;5.10;;;3.60;;
81884;SDS011;71340;55.154;30.266;2023-07-22T04:22:20;3.90;;;2.80;;
81884;SDS011;71340;55.154;30.266;2023-07-22T04:24:46;4.15;;;2.83;;
81884;SDS011;71340;55.154;30.266;2023-07-22T04:27:13;3.83;;;2.72;;
81884;SDS011;71340;55.154;30.266;2023-07-22T04:29:39;4.80;;;2.80;;
81884;SDS011;71340;55.154;30.266;2023-07-22T04:32:07;4.95;;;2.60;;
81884;SDS011;71340;55.154;30.266;2023-07-22T04:34:33;5.93;;;3.17;;
81884;SDS011;71340;55.154;30.266;2023-07-22T04:36:59;4.27;;;2.70;;
81884;SDS011;71340;55.154;30.266;2023-07-22T04:39:25;3.20;;;2.90;;
81884;SDS011;71340;55.154;30.266;2023-07-22T04:41:50;5.90;;;2.73;;
81884;SDS011;71340;55.154;30.266;2023-07-22T04:44:16;4.40;;;2.78;;
81884;SDS011;71340;55.154;30.266;2023-07-22T04:46:42;3.37;;;2.60;;
81884;SDS011;71340;55.154;30.266;2023-07-22T04:49:08;5.00;;;3.00;;
81884;SDS011;71340;55.154;30.266;2023-07-22T04:51:33;7.78;;;2.90;;
81884;SDS011;71340;55.154;30.266;2023-07-22T04:53:59;6.00;;;3.20;;
81884;SDS011;71340;55.154;30.266;2023-07-22T04:56:24;3.97;;;2.60;;
81884;SDS011;71340;55.154;30.266;2023-07-22T04:58:49;5.27;;;3.00;;
81884;SDS011;71340;55.154;30.266;2023-07-22T05:01:15;4.87;;;2.77;;
81884;SDS011;71340;55.154;30.266;2023-07-22T05:03:40;6.32;;;3.25;;
81884;SDS011;71340;55.154;30.266;2023-07-22T05:06:06;4.07;;;2.70;;
81884;SDS011;71340;55.154;30.266;2023-07-22T05:08:31;3.97;;;2.37;;
81884;SDS011;71340;55.154;30.266;2023-07-22T05:10:57;3.58;;;2.50;;
81884;SDS011;71340;55.154;30.266;2023-07-22T05:13:22;3.67;;;2.47;;
81884;SDS011;71340;55.154;30.266;2023-07-22T05:15:47;5.13;;;2.50;;
81884;SDS011;71340;55.154;30.266;2023-07-22T05:18:13;4.43;;;2.57;;
81884;SDS011;71340;55.154;30.266;2023-07-22T05:20:38;6.57;;;3.20;;
81884;SDS011;71340;55.154;30.266;2023-07-22T05:23:04;4.45;;;2.70;;
81884;SDS011;71340;55.154;30.266;2023-07-22T05:25:29;2.83;;;2.53;;
81884;SDS011;71340;55.154;30.266;2023-07-22T05:27:55;5.07;;;2.90;;
81884;SDS011;71340;55.154;30.266;2023-07-22T05:30:20;5.93;;;2.70;;
81884;SDS011;71340;55.154;30.266;2023-07-22T05:32:46;3.83;;;2.55;;
81884;SDS011;71340;55.154;30.266;2023-07-22T05:35:11;4.80;;;2.50;;
81884;SDS011;71340;55.154;30.266;2023-07-22T05:37:36;8.60;;;2.90;;
81884;SDS011;71340;55.154;30.266;2023-07-22T05:40:02;4.47;;;2.70;;
81884;SDS011;71340;55.154;30.266;2023-07-22T05:42:28;5.77;;;2.57;;
81884;SDS011;71340;55.154;30.266;2023-07-22T05:44:54;7.73;;;2.63;;
81884;SDS011;71340;55.154;30.266;2023-07-22T05:47:20;9.18;;;2.92;;
81884;SDS011;71340;55.154;30.266;2023-07-22T05:49:45;8.67;;;2.77;;
81884;SDS011;71340;55.154;30.266;2023-07-22T05:52:11;9.97;;;2.63;;
81884;SDS011;71340;55.154;30.266;2023-07-22T05:54:36;3.33;;;2.93;;
81884;SDS011;71340;55.154;30.266;2023-07-22T05:57:01;5.27;;;3.40;;
81884;SDS011;71340;55.154;30.266;2023-07-22T05:59:28;5.32;;;2.92;;
81884;SDS011;71340;55.154;30.266;2023-07-22T06:01:54;6.90;;;2.83;;
81884;SDS011;71340;55.154;30.266;2023-07-22T06:04:20;5.77;;;2.30;;
81884;SDS011;71340;55.154;30.266;2023-07-22T06:06:45;7.43;;;2.30;;
81884;SDS011;71340;55.154;30.266;2023-07-22T06:09:10;4.80;;;2.53;;
81884;SDS011;71340;55.154;30.266;2023-07-22T06:11:36;3.50;;;2.20;;
81884;SDS011;71340;55.154;30.266;2023-07-22T06:14:01;4.70;;;2.37;;
81884;SDS011;71340;55.154;30.266;2023-07-22T06:16:27;4.57;;;2.65;;
81884;SDS011;71340;55.154;30.266;2023-07-22T06:18:52;3.63;;;2.20;;
81884;SDS011;71340;55.154;30.266;2023-07-22T06:21:18;3.13;;;2.20;;
81884;SDS011;71340;55.154;30.266;2023-07-22T06:23:43;5.40;;;2.20;;
81884;SDS011;71340;55.154;30.266;2023-07-22T06:26:08;4.27;;;2.03;;
81884;SDS011;71340;55.154;30.266;2023-07-22T06:28:34;3.17;;;2.30;;
81884;SDS011;71340;55.154;30.266;2023-07-22T06:30:59;4.53;;;2.10;;
81884;SDS011;71340;55.154;30.266;2023-07-22T06:33:24;4.50;;;2.50;;
81884;SDS011;71340;55.154;30.266;2023-07-22T06:35:50;6.07;;;2.50;;
81884;SDS011;71340;55.154;30.266;2023-07-22T06:38:15;7.33;;;2.67;;
81884;SDS011;71340;55.154;30.266;2023-07-22T06:40:40;5.15;;;2.50;;
81884;SDS011;71340;55.154;30.266;2023-07-22T06:43:06;4.57;;;2.30;;
81884;SDS011;71340;55.154;30.266;2023-07-22T06:45:32;6.90;;;2.20;;
81884;SDS011;71340;55.154;30.266;2023-07-22T06:47:58;4.85;;;2.55;;
81884;SDS011;71340;55.154;30.266;2023-07-22T06:50:23;4.13;;;2.03;;
81884;SDS011;71340;55.154;30.266;2023-07-22T06:52:48;2.97;;;2.27;;
81884;SDS011;71340;55.154;30.266;2023-07-22T06:55:14;3.97;;;2.00;;
81884;SDS011;71340;55.154;30.266;2023-07-22T06:57:40;13.75;;;2.50;;
81884;SDS011;71340;55.154;30.266;2023-07-22T07:00:05;4.27;;;2.20;;
81884;SDS011;71340;55.154;30.266;2023-07-22T07:02:31;4.80;;;2.38;;
81884;SDS011;71340;55.154;30.266;2023-07-22T07:04:57;5.70;;;2.77;;
81884;SDS011;71340;55.154;30.266;2023-07-22T07:07:22;4.00;;;2.40;;
81884;SDS011;71340;55.154;30.266;2023-07-22T07:09:47;2.83;;;2.20;;
81884;SDS011;71340;55.154;30.266;2023-07-22T07:12:13;3.63;;;2.20;;
81884;SDS011;71340;55.154;30.266;2023-07-22T07:14:38;5.85;;;2.30;;
81884;SDS011;71340;55.154;30.266;2023-07-22T07:17:03;4.03;;;1.80;;
81884;SDS011;71340;55.154;30.266;2023-07-22T07:19:29;4.57;;;2.40;;
81884;SDS011;71340;55.154;30.266;2023-07-22T07:21:54;4.77;;;2.00;;
81884;SDS011;71340;55.154;30.266;2023-07-22T07:24:19;5.83;;;2.23;;
81884;SDS011;71340;55.154;30.266;2023-07-22T07:26:45;4.53;;;2.10;;
81884;SDS011;71340;55.154;30.266;2023-07-22T07:29:10;4.72;;;2.38;;
81884;SDS011;71340;55.154;30.266;2023-07-22T07:31:36;5.43;;;2.13;;
81884;SDS011;71340;55.154;30.266;2023-07-22T07:34:02;5.40;;;1.95;;
81884;SDS011;71340;55.154;30.266;2023-07-22T07:36:28;5.10;;;2.20;;
81884;SDS011;71340;55.154;30.266;2023-07-22T07:38:53;4.70;;;2.40;;
81884;SDS011;71340;55.154;30.266;2023-07-22T07:41:18;6.27;;;2.10;;
81884;SDS011;71340;55.154;30.266;2023-07-22T07:43:44;3.23;;;2.33;;
81884;SDS011;71340;55.154;30.266;2023-07-22T07:46:16;3.73;;;2.20;;
81884;SDS011;71340;55.154;30.266;2023-07-22T07:48:50;4.60;;;1.70;;
81884;SDS011;71340;55.154;30.266;2023-07-22T07:51:17;3.13;;;1.95;;
81884;SDS011;71340;55.154;30.266;2023-07-22T07:53:44;3.50;;;2.00;;
81884;SDS011;71340;55.154;30.266;2023-07-22T07:56:12;7.07;;;2.00;;
81884;SDS011;71340;55.154;30.266;2023-07-22T07:58:38;3.83;;;2.17;;
81884;SDS011;71340;55.154;30.266;2023-07-22T08:01:04;5.37;;;2.50;;
81884;SDS011;71340;55.154;30.266;2023-07-22T08:03:30;3.53;;;1.75;;
81884;SDS011;71340;55.154;30.266;2023-07-22T08:05:56;4.22;;;2.65;;
81884;SDS011;71340;55.154;30.266;2023-07-22T08:08:21;2.93;;;2.03;;
81884;SDS011;71340;55.154;30.266;2023-07-22T08:10:46;5.73;;;1.90;;
81884;SDS011;71340;55.154;30.266;2023-07-22T08:13:13;4.15;;;2.20;;
81884;SDS011;71340;55.154;30.266;2023-07-22T08:15:39;10.10;;;2.30;;
81884;SDS011;71340;55.154;30.266;2023-07-22T08:18:04;4.72;;;2.03;;
81884;SDS011;71340;55.154;30.266;2023-07-22T08:20:30;2.77;;;2.00;;
81884;SDS011;71340;55.154;30.266;2023-07-22T08:22:55;5.03;;;2.10;;
81884;SDS011;71340;55.154;30.266;2023-07-22T08:25:21;3.23;;;2.20;;
81884;SDS011;71340;55.154;30.266;2023-07-22T08:27:46;3.33;;;2.10;;
81884;SDS011;71340;55.154;30.266;2023-07-22T08:30:12;3.80;;;2.23;;
81884;SDS011;71340;55.154;30.266;2023-07-22T08:32:37;3.40;;;2.30;;
81884;SDS011;71340;55.154;30.266;2023-07-22T08:35:03;4.40;;;1.80;;
81884;SDS011;71340;55.154;30.266;2023-07-22T08:37:28;2.17;;;1.98;;
81884;SDS011;71340;55.154;30.266;2023-07-22T08:39:54;2.77;;;2.17;;
81884;SDS011;71340;55.154;30.266;2023-07-22T08:42:20;2.33;;;1.80;;
81884;SDS011;71340;55.154;30.266;2023-07-22T08:44:48;3.97;;;2.00;;
81884;SDS011;71340;55.154;30.266;2023-07-22T08:47:14;3.75;;;2.42;;
81884;SDS011;71340;55.154;30.266;2023-07-22T08:49:45;2.97;;;1.90;;
81884;SDS011;71340;55.154;30.266;2023-07-22T08:52:14;3.23;;;2.10;;
81884;SDS011;71340;55.154;30.266;2023-07-22T08:54:40;4.80;;;1.95;;
81884;SDS011;71340;55.154;30.266;2023-07-22T08:57:07;3.83;;;1.92;;
81884;SDS011;71340;55.154;30.266;2023-07-22T08:59:36;2.77;;;1.93;;
81884;SDS011;71340;55.154;30.266;2023-07-22T09:02:01;4.35;;;2.30;;
81884;SDS011;71340;55.154;30.266;2023-07-22T09:04:27;2.53;;;2.10;;
81884;SDS011;71340;55.154;30.266;2023-07-22T09:06:53;5.37;;;2.37;;
81884;SDS011;71340;55.154;30.266;2023-07-22T09:09:20;3.75;;;2.45;;
81884;SDS011;71340;55.154;30.266;2023-07-22T09:11:47;2.73;;;1.90;;
81884;SDS011;71340;55.154;30.266;2023-07-22T09:14:12;3.17;;;1.80;;
81884;SDS011;71340;55.154;30.266;2023-07-22T09:16:38;3.70;;;2.50;;
81884;SDS011;71340;55.154;30.266;2023-07-22T09:19:04;3.78;;;1.80;;
81884;SDS011;71340;55.154;30.266;2023-07-22T09:21:30;4.68;;;2.03;;
81884;SDS011;71340;55.154;30.266;2023-07-22T09:23:56;4.17;;;2.40;;
81884;SDS011;71340;55.154;30.266;2023-07-22T09:26:21;2.97;;;2.27;;
81884;SDS011;71340;55.154;30.266;2023-07-22T09:28:51;2.63;;;1.80;;
81884;SDS011;71340;55.154;30.266;2023-07-22T09:31:16;2.87;;;2.00;;
81884;SDS011;71340;55.154;30.266;2023-07-22T09:33:41;2.87;;;2.23;;
81884;SDS011;71340;55.154;30.266;2023-07-22T09:36:09;5.97;;;2.20;;
81884;SDS011;71340;55.154;30.266;2023-07-22T09:38:35;3.58;;;1.80;;
81884;SDS011;71340;55.154;30.266;2023-07-22T09:41:00;3.20;;;2.47;;
81884;SDS011;71340;55.154;30.266;2023-07-22T09:43:26;3.43;;;2.50;;
81884;SDS011;71340;55.154;30.266;2023-07-22T09:45:51;4.47;;;2.17;;
81884;SDS011;71340;55.154;30.266;2023-07-22T09:48:16;4.93;;;2.00;;
81884;SDS011;71340;55.154;30.266;2023-07-22T09:50:42;2.83;;;2.30;;
81884;SDS011;71340;55.154;30.266;2023-07-22T09:53:07;3.07;;;2.10;;
81884;SDS011;71340;55.154;30.266;2023-07-22T09:55:33;3.77;;;1.90;;
81884;SDS011;71340;55.154;30.266;2023-07-22T09:58:03;4.38;;;2.17;;
81884;SDS011;71340;55.154;30.266;2023-07-22T10:00:33;3.30;;;2.20;;
81884;SDS011;71340;55.154;30.266;2023-07-22T10:03:00;3.22;;;2.50;;
81884;SDS011;71340;55.154;30.266;2023-07-22T10:05:27;3.28;;;1.90;;
81884;SDS011;71340;55.154;30.266;2023-07-22T10:07:57;3.53;;;2.90;;
81884;SDS011;71340;55.154;30.266;2023-07-22T10:10:27;5.32;;;1.92;;
81884;SDS011;71340;55.154;30.266;2023-07-22T10:12:56;4.63;;;2.30;;
81884;SDS011;71340;55.154;30.266;2023-07-22T10:15:24;3.17;;;2.30;;
81884;SDS011;71340;55.154;30.266;2023-07-22T15:17:07;5.07;;;3.37;;
81884;SDS011;71340;55.154;30.266;2023-07-22T15:19:33;5.28;;;2.92;;
81884;SDS011;71340;55.154;30.266;2023-07-22T15:21:58;7.20;;;3.03;;
81884;SDS011;71340;55.154;30.266;2023-07-22T15:24:23;4.33;;;2.80;;
81884;SDS011;71340;55.154;30.266;2023-07-22T15:26:49;6.23;;;3.13;;
81884;SDS011;71340;55.154;30.266;2023-07-22T15:29:14;5.37;;;3.27;;
81884;SDS011;71340;55.154;30.266;2023-07-22T15:31:39;5.43;;;3.47;;
81884;SDS011;71340;55.154;30.266;2023-07-22T15:34:05;5.90;;;3.20;;
81884;SDS011;71340;55.154;30.266;2023-07-22T15:36:30;4.53;;;2.80;;
81884;SDS011;71340;55.154;30.266;2023-07-22T15:38:55;5.47;;;3.47;;
81884;SDS011;71340;55.154;30.266;2023-07-22T15:41:21;5.03;;;3.13;;
81884;SDS011;71340;55.154;30.266;2023-07-22T15:43:47;7.85;;;2.90;;
81884;SDS011;71340;55.154;30.266;2023-07-22T15:46:12;7.70;;;3.33;;
81884;SDS011;71340;55.154;30.266;2023-07-22T15:48:37;5.27;;;2.90;;
81884;SDS011;71340;55.154;30.266;2023-07-22T15:51:02;7.13;;;2.80;;
81884;SDS011;71340;55.154;30.266;2023-07-22T15:53:28;6.93;;;2.95;;
81884;SDS011;71340;55.154;30.266;2023-07-22T15:55:54;5.30;;;2.90;;
81884;SDS011;71340;55.154;30.266;2023-07-22T15:58:19;4.73;;;3.20;;
81884;SDS011;71340;55.154;30.266;2023-07-22T16:00:46;6.85;;;3.92;;
81884;SDS011;71340;55.154;30.266;2023-07-22T16:03:11;7.97;;;3.40;;
81884;SDS011;71340;55.154;30.266;2023-07-22T16:05:37;8.48;;;3.70;;
81884;SDS011;71340;55.154;30.266;2023-07-22T16:08:02;7.03;;;3.50;;
81884;SDS011;71340;55.154;30.266;2023-07-22T16:10:31;5.23;;;3.67;;
81884;SDS011;71340;55.154;30.266;2023-07-22T16:12:58;7.90;;;3.90;;
81884;SDS011;71340;55.154;30.266;2023-07-22T16:15:24;11.07;;;4.87;;
81884;SDS011;71340;55.154;30.266;2023-07-22T16:17:49;8.05;;;4.28;;
81884;SDS011;71340;55.154;30.266;2023-07-22T16:20:15;8.97;;;4.67;;
81884;SDS011;71340;55.154;30.266;2023-07-22T16:22:40;7.53;;;4.70;;
81884;SDS011;71340;55.154;30.266;2023-07-22T16:25:06;9.70;;;4.68;;
81884;SDS011;71340;55.154;30.266;2023-07-22T16:27:34;6.80;;;4.07;;
81884;SDS011;71340;55.154;30.266;2023-07-22T16:29:59;12.57;;;5.47;;
81884;SDS011;71340;55.154;30.266;2023-07-22T16:32:24;10.47;;;5.13;;
81884;SDS011;71340;55.154;30.266;2023-07-22T16:34:50;8.10;;;4.63;;
81884;SDS011;71340;55.154;30.266;2023-07-22T16:37:15;7.30;;;4.27;;
81884;SDS011;71340;55.154;30.266;2023-07-22T16:39:40;7.17;;;4.17;;
81884;SDS011;71340;55.154;30.266;2023-07-22T16:42:06;6.80;;;4.60;;
81884;SDS011;71340;55.154;30.266;2023-07-22T16:44:32;7.17;;;4.33;;
81884;SDS011;71340;55.154;30.266;2023-07-22T16:46:57;8.57;;;3.90;;
81884;SDS011;71340;55.154;30.266;2023-07-22T16:49:23;8.40;;;3.67;;
81884;SDS011;71340;55.154;30.266;2023-07-22T16:51:48;8.87;;;4.73;;
81884;SDS011;71340;55.154;30.266;2023-07-22T16:54:13;8.30;;;4.50;;
81884;SDS011;71340;55.154;30.266;2023-07-22T16:56:40;7.82;;;4.18;;
81884;SDS011;71340;55.154;30.266;2023-07-22T16:59:06;6.95;;;4.32;;
81884;SDS011;71340;55.154;30.266;2023-07-22T17:01:32;9.03;;;5.20;;
81884;SDS011;71340;55.154;30.266;2023-07-22T17:03:57;13.37;;;5.67;;
81884;SDS011;71340;55.154;30.266;2023-07-22T17:06:22;12.80;;;6.60;;
81884;SDS011;71340;55.154;30.266;2023-07-22T17:08:49;12.90;;;6.13;;
81884;SDS011;71340;55.154;30.266;2023-07-22T17:11:14;7.93;;;4.40;;
81884;SDS011;71340;55.154;30.266;2023-07-22T17:13:40;8.70;;;3.77;;
81884;SDS011;71340;55.154;30.266;2023-07-22T17:16:06;6.20;;;3.70;;
81884;SDS011;71340;55.154;30.266;2023-07-22T17:18:31;11.57;;;3.73;;
81884;SDS011;71340;55.154;30.266;2023-07-22T17:20:56;7.43;;;3.63;;
81884;SDS011;71340;55.154;30.266;2023-07-22T17:23:22;8.73;;;3.80;;
81884;SDS011;71340;55.154;30.266;2023-07-22T17:25:47;7.93;;;3.90;;
81884;SDS011;71340;55.154;30.266;2023-07-22T17:28:12;8.07;;;4.17;;
81884;SDS011;71340;55.154;30.266;2023-07-22T17:30:38;7.13;;;4.20;;
81884;SDS011;71340;55.154;30.266;2023-07-22T17:33:03;11.63;;;3.60;;
81884;SDS011;71340;55.154;30.266;2023-07-22T17:35:29;8.43;;;3.73;;
81884;SDS011;71340;55.154;30.266;2023-07-22T17:37:55;6.95;;;3.45;;
81884;SDS011;71340;55.154;30.266;2023-07-22T17:40:20;7.67;;;3.30;;
81884;SDS011;71340;55.154;30.266;2023-07-22T17:42:50;5.38;;;3.25;;
81884;SDS011;71340;55.154;30.266;2023-07-22T17:45:16;10.03;;;3.43;;
81884;SDS011;71340;55.154;30.266;2023-07-22T17:47:41;5.87;;;4.13;;
81884;SDS011;71340;55.154;30.266;2023-07-22T17:50:07;8.50;;;3.57;;
81884;SDS011;71340;55.154;30.266;2023-07-22T17:52:32;7.13;;;4.32;;
81884;SDS011;71340;55.154;30.266;2023-07-22T17:54:58;4.83;;;4.00;;
81884;SDS011;71340;55.154;30.266;2023-07-22T17:57:23;5.90;;;3.73;;
81884;SDS011;71340;55.154;30.266;2023-07-22T17:59:48;22.03;;;4.30;;
81884;SDS011;71340;55.154;30.266;2023-07-22T18:02:14;3.58;;;3.00;;
81884;SDS011;71340;55.154;30.266;2023-07-22T18:04:39;4.30;;;3.03;;
81884;SDS011;71340;55.154;30.266;2023-07-22T18:07:04;4.97;;;3.40;;
81884;SDS011;71340;55.154;30.266;2023-07-22T18:09:30;6.53;;;3.70;;
81884;SDS011;71340;55.154;30.266;2023-07-22T18:11:55;6.40;;;3.27;;
81884;SDS011;71340;55.154;30.266;2023-07-22T18:14:21;5.60;;;3.30;;
81884;SDS011;71340;55.154;30.266;2023-07-22T18:16:46;6.77;;;3.87;;
81884;SDS011;71340;55.154;30.266;2023-07-22T18:19:11;5.50;;;3.70;;
81884;SDS011;71340;55.154;30.266;2023-07-22T18:21:37;4.13;;;3.47;;
81884;SDS011;71340;55.154;30.266;2023-07-22T18:24:02;5.27;;;3.60;;
81884;SDS011;71340;55.154;30.266;2023-07-22T18:26:28;7.07;;;3.60;;
81884;SDS011;71340;55.154;30.266;2023-07-22T18:28:53;5.70;;;4.07;;
81884;SDS011;71340;55.154;30.266;2023-07-22T18:31:18;4.53;;;3.78;;
81884;SDS011;71340;55.154;30.266;2023-07-22T18:33:50;5.53;;;4.17;;
81884;SDS011;71340;55.154;30.266;2023-07-22T18:36:15;5.47;;;3.90;;
81884;SDS011;71340;55.154;30.266;2023-07-22T18:38:41;6.07;;;4.07;;
81884;SDS011;71340;55.154;30.266;2023-07-22T18:41:09;5.00;;;4.10;;
81884;SDS011;71340;55.154;30.266;2023-07-22T18:43:35;10.05;;;4.25;;
81884;SDS011;71340;55.154;30.266;2023-07-22T18:46:00;4.70;;;4.20;;
81884;SDS011;71340;55.154;30.266;2023-07-22T18:48:25;5.93;;;3.97;;
81884;SDS011;71340;55.154;30.266;2023-07-22T18:50:54;4.53;;;4.13;;
81884;SDS011;71340;55.154;30.266;2023-07-22T18:53:20;8.00;;;4.75;;
81884;SDS011;71340;55.154;30.266;2023-07-22T18:55:45;5.33;;;4.00;;
81884;SDS011;71340;55.154;30.266;2023-07-22T18:58:11;5.27;;;3.90;;
81884;SDS011;71340;55.154;30.266;2023-07-22T19:00:36;5.53;;;4.13;;
81884;SDS011;71340;55.154;30.266;2023-07-22T19:03:02;5.53;;;4.20;;
81884;SDS011;71340;55.154;30.266;2023-07-22T19:05:27;7.10;;;4.10;;
81884;SDS011;71340;55.154;30.266;2023-07-22T19:07:52;6.10;;;3.63;;
81884;SDS011;71340;55.154;30.266;2023-07-22T19:10:18;4.57;;;3.90;;
81884;SDS011;71340;55.154;30.266;2023-07-22T19:12:43;5.27;;;3.90;;
81884;SDS011;71340;55.154;30.266;2023-07-22T19:15:08;6.47;;;4.50;;
81884;SDS011;71340;55.154;30.266;2023-07-22T19:17:34;6.40;;;4.00;;
81884;SDS011;71340;55.154;30.266;2023-07-22T19:19:59;5.73;;;4.20;;
81884;SDS011;71340;55.154;30.266;2023-07-22T19:22:25;5.60;;;4.00;;
81884;SDS011;71340;55.154;30.266;2023-07-22T19:24:50;4.50;;;4.10;;